createdAt,value
2018-09-16T00:01:02.372Z,331.30
2018-09-16T00:03:07.321Z,332.37
2018-09-16T00:05:12.141Z,252.97
2018-09-16T00:07:17.283Z,160.12
2018-09-16T00:09:22.466Z,159.87
2018-09-16T00:11:27.322Z,141.63
2018-09-16T00:13:32.332Z,141.00
2018-09-16T00:15:37.246Z,126.17
2018-09-16T00:17:42.259Z,108.63
2018-09-16T00:19:47.518Z,94.90
2018-09-16T00:21:52.504Z,97.67
2018-09-16T00:26:36.061Z,114.33
2018-09-16T00:28:41.148Z,100.77
2018-09-16T00:30:46.121Z,104.67
2018-09-16T00:32:51.461Z,102.53
2018-09-16T00:34:56.473Z,105.23
2018-09-16T00:37:01.359Z,95.03
2018-09-16T00:39:07.135Z,91.10
2018-09-16T00:41:11.942Z,91.47
2018-09-16T00:43:17.050Z,81.17
2018-09-16T00:45:22.264Z,76.50
2018-09-16T00:47:27.296Z,74.60
2018-09-16T00:49:32.288Z,71.73
2018-09-16T00:51:37.389Z,69.27
2018-09-16T00:53:42.164Z,67.00
2018-09-16T00:55:47.180Z,64.07
2018-09-16T00:57:52.279Z,59.33
2018-09-16T00:59:57.062Z,58.63
2018-09-16T01:02:01.991Z,56.50
2018-09-16T01:04:07.178Z,53.97
2018-09-16T01:06:15.991Z,54.13
2018-09-16T01:08:21.646Z,52.40
2018-09-16T01:10:26.843Z,40.37
2018-09-16T01:12:31.773Z,37.57
2018-09-16T01:14:36.738Z,34.20
2018-09-16T01:16:42.684Z,31.60
2018-09-16T01:18:47.692Z,31.03
2018-09-16T01:20:52.748Z,27.63
2018-09-16T01:22:58.899Z,28.23
2018-09-16T01:25:03.820Z,25.00
2018-09-16T01:27:08.810Z,24.93
2018-09-16T01:29:13.644Z,24.00
2018-09-16T01:31:18.822Z,25.73
2018-09-16T01:33:23.712Z,23.33
2018-09-16T01:35:28.870Z,25.83
2018-09-16T01:37:38.025Z,22.20
2018-09-16T01:39:43.140Z,20.70
2018-09-16T01:41:48.016Z,27.13
2018-09-16T01:43:53.476Z,25.97
2018-09-16T01:45:58.314Z,26.07
2018-09-16T01:48:03.022Z,23.70
2018-09-16T01:50:11.901Z,23.13
2018-09-16T01:52:16.882Z,23.33
2018-09-16T01:54:23.620Z,22.50
2018-09-16T01:56:28.787Z,20.70
2018-09-16T01:58:33.615Z,18.17
2018-09-16T02:00:38.623Z,17.10
2018-09-16T02:02:44.382Z,17.43
2018-09-16T02:04:52.978Z,19.80
2018-09-16T02:06:57.932Z,18.00
2018-09-16T02:09:12.122Z,15.87
2018-09-16T02:11:25.872Z,18.10
2018-09-16T02:13:38.999Z,15.97
2018-09-16T02:23:03.713Z,11.40
2018-09-16T02:25:10.533Z,10.37
2018-09-16T02:27:15.503Z,10.17
2018-09-16T02:29:20.365Z,10.07
2018-09-16T02:31:25.626Z,9.80
2018-09-16T02:33:30.846Z,8.10
2018-09-16T02:35:35.621Z,7.87
2018-09-16T02:37:40.593Z,7.80
2018-09-16T02:39:45.688Z,8.60
2018-09-16T02:41:50.706Z,7.40
2018-09-16T02:43:55.661Z,8.00
2018-09-16T02:46:00.613Z,8.90
2018-09-16T02:48:05.478Z,7.60
2018-09-16T02:50:10.265Z,10.00
2018-09-16T02:52:15.390Z,11.13
2018-09-16T02:54:20.342Z,9.50
2018-09-16T02:56:25.222Z,7.33
2018-09-16T02:58:30.379Z,7.13
2018-09-16T03:00:35.291Z,7.30
2018-09-16T03:02:46.291Z,7.77
2018-09-16T03:04:51.237Z,7.40
2018-09-16T03:07:00.419Z,7.30
2018-09-16T03:09:05.528Z,7.00
2018-09-16T03:11:10.695Z,7.40
2018-09-16T03:13:15.853Z,8.33
2018-09-16T03:15:20.766Z,7.23
2018-09-16T03:17:25.974Z,6.90
2018-09-16T03:19:30.875Z,7.60
2018-09-16T03:21:35.990Z,6.33
2018-09-16T03:23:41.050Z,7.17
2018-09-16T03:25:45.903Z,7.83
2018-09-16T03:27:55.866Z,7.27
2018-09-16T03:30:00.997Z,7.47
2018-09-16T03:32:05.898Z,6.47
2018-09-16T03:34:10.738Z,6.20
2018-09-16T03:36:15.737Z,8.20
2018-09-16T03:38:20.660Z,6.60
2018-09-16T03:40:26.248Z,6.73
2018-09-16T03:42:31.428Z,6.77
2018-09-16T03:44:36.308Z,6.40
2018-09-16T03:46:41.308Z,6.30
2018-09-16T03:48:46.298Z,7.07
2018-09-16T03:50:51.248Z,6.60
2018-09-16T03:52:56.537Z,5.80
2018-09-16T03:55:01.505Z,6.10
2018-09-16T03:57:06.351Z,6.30
2018-09-16T03:59:11.249Z,6.00
2018-09-16T04:01:16.465Z,6.00
2018-09-16T04:03:21.462Z,6.43
2018-09-16T04:05:26.380Z,5.03
2018-09-16T04:07:31.237Z,5.90
2018-09-16T04:09:36.339Z,5.80
2018-09-16T04:11:41.651Z,5.07
2018-09-16T04:13:46.732Z,5.50
2018-09-16T04:15:52.012Z,5.60
2018-09-16T04:17:57.000Z,5.33
2018-09-16T04:20:01.806Z,5.23
2018-09-16T04:22:06.613Z,5.60
2018-09-16T04:24:11.499Z,5.03
2018-09-16T04:26:17.379Z,5.23
2018-09-16T04:28:22.299Z,4.83
2018-09-16T04:30:27.202Z,5.00
2018-09-16T04:32:32.490Z,5.10
2018-09-16T04:34:37.693Z,4.77
2018-09-16T04:36:42.629Z,4.60
2018-09-16T04:38:47.643Z,5.53
2018-09-16T04:40:52.886Z,5.10
2018-09-16T04:42:57.921Z,4.33
2018-09-16T04:45:02.692Z,3.80
2018-09-16T04:47:07.661Z,5.10
2018-09-16T04:49:12.865Z,4.40
2018-09-16T04:51:17.670Z,4.63
2018-09-16T04:53:22.540Z,4.50
2018-09-16T04:55:27.729Z,4.10
2018-09-16T04:57:32.647Z,4.20
2018-09-16T04:59:38.162Z,4.67
2018-09-16T05:01:43.087Z,4.37
2018-09-16T05:03:47.968Z,3.73
2018-09-16T05:05:52.738Z,4.07
2018-09-16T05:07:57.758Z,4.30
2018-09-16T05:10:02.820Z,4.40
2018-09-16T05:12:07.816Z,4.50
2018-09-16T05:14:12.956Z,5.30
2018-09-16T05:16:17.927Z,5.70
2018-09-16T05:18:24.005Z,5.90
2018-09-16T05:20:29.608Z,6.10
2018-09-16T05:22:34.941Z,5.53
2018-09-16T05:24:39.902Z,5.80
2018-09-16T05:26:45.303Z,5.43
2018-09-16T05:28:50.272Z,5.80
2018-09-16T05:30:55.183Z,6.40
2018-09-16T05:33:00.352Z,6.53
2018-09-16T05:35:05.243Z,7.27
2018-09-16T05:37:10.236Z,7.70
2018-09-16T05:39:15.265Z,7.27
2018-09-16T05:41:20.040Z,6.47
2018-09-16T05:43:25.037Z,7.03
2018-09-16T05:45:30.102Z,7.63
2018-09-16T05:47:35.063Z,8.00
2018-09-16T05:52:25.742Z,7.00
2018-09-16T05:54:30.730Z,7.33
2018-09-16T05:56:35.776Z,6.80
2018-09-16T05:58:43.570Z,7.10
2018-09-16T06:00:48.502Z,7.53
2018-09-16T06:02:53.421Z,7.03
2018-09-16T06:04:58.681Z,7.17
2018-09-16T06:07:03.506Z,7.53
2018-09-16T06:09:08.362Z,8.13
2018-09-16T06:11:13.203Z,8.33
2018-09-16T06:13:18.145Z,8.20
2018-09-16T06:15:23.126Z,7.80
2018-09-16T06:17:27.998Z,7.97
2018-09-16T06:19:32.723Z,7.97
2018-09-16T06:21:37.723Z,8.57
2018-09-16T06:23:43.505Z,8.50
2018-09-16T06:25:48.419Z,8.20
2018-09-16T06:27:53.521Z,8.57
2018-09-16T06:29:58.272Z,8.73
2018-09-16T06:32:02.996Z,8.00
2018-09-16T06:34:08.360Z,9.10
2018-09-16T06:36:13.382Z,7.93
2018-09-16T06:38:18.147Z,8.03
2018-09-16T06:40:23.080Z,8.50
2018-09-16T06:42:28.376Z,9.40
2018-09-16T06:44:33.188Z,9.30
2018-09-16T06:46:38.466Z,9.00
2018-09-16T06:48:43.505Z,8.63
2018-09-16T06:50:48.464Z,9.03
2018-09-16T06:52:53.520Z,8.70
2018-09-16T06:54:58.333Z,9.60
2018-09-16T06:57:03.106Z,8.80
2018-09-16T06:59:08.003Z,9.07
2018-09-16T07:01:13.217Z,9.30
2018-09-16T07:03:18.095Z,9.30
2018-09-16T07:05:23.100Z,9.33
2018-09-16T07:07:28.069Z,9.33
2018-09-16T07:09:33.230Z,8.80
2018-09-16T07:11:38.055Z,9.10
2018-09-16T07:13:43.056Z,9.37
2018-09-16T07:15:48.028Z,8.80
2018-09-16T07:17:53.054Z,9.20
2018-09-16T07:19:57.996Z,8.90
2018-09-16T07:22:02.976Z,8.83
2018-09-16T07:24:07.855Z,8.70
2018-09-16T07:26:12.699Z,9.50
2018-09-16T07:28:17.630Z,9.10
2018-09-16T07:30:22.684Z,9.10
2018-09-16T07:32:27.694Z,9.17
2018-09-16T07:34:32.515Z,8.70
2018-09-16T07:36:37.631Z,8.97
2018-09-16T07:38:42.706Z,9.90
2018-09-16T07:40:49.248Z,9.20
2018-09-16T07:42:53.979Z,8.67
2018-09-16T07:44:58.911Z,8.10
2018-09-16T07:47:03.893Z,9.57
2018-09-16T07:49:08.810Z,8.00
2018-09-16T07:51:13.591Z,8.60
2018-09-16T07:53:18.761Z,8.43
2018-09-16T07:55:23.680Z,9.07
2018-09-16T07:57:28.384Z,24.43
2018-09-16T07:59:33.274Z,65.97
2018-09-16T08:01:38.324Z,40.27
2018-09-16T08:03:43.314Z,32.23
2018-09-16T08:05:49.904Z,30.87
2018-09-16T08:07:54.835Z,26.93
2018-09-16T08:10:00.594Z,23.40
2018-09-16T08:14:49.229Z,21.50
2018-09-16T08:16:54.199Z,22.33
2018-09-16T08:19:00.024Z,22.30
2018-09-16T08:21:05.453Z,21.17
2018-09-16T08:23:11.265Z,22.03
2018-09-16T08:25:16.511Z,20.70
2018-09-16T08:27:21.599Z,21.80
2018-09-16T08:29:27.000Z,20.90
2018-09-16T08:31:32.080Z,21.00
2018-09-16T08:33:37.307Z,20.10
2018-09-16T08:35:42.767Z,21.30
2018-09-16T08:37:48.348Z,21.50
2018-09-16T08:39:53.795Z,19.83
2018-09-16T08:41:59.071Z,20.60
2018-09-16T08:44:04.089Z,20.87
2018-09-16T08:46:09.417Z,20.70
2018-09-16T08:48:14.569Z,19.87
2018-09-16T08:50:20.010Z,20.73
2018-09-16T08:52:25.703Z,21.17
2018-09-16T08:54:30.873Z,20.07
2018-09-16T08:56:36.153Z,19.30
2018-09-16T08:58:41.645Z,18.53
2018-09-16T09:00:48.310Z,19.30
2018-09-16T09:02:53.687Z,19.07
2018-09-16T09:04:58.870Z,19.50
2018-09-16T09:07:04.407Z,18.90
2018-09-16T09:09:10.077Z,17.93
2018-09-16T09:11:15.045Z,19.77
2018-09-16T09:13:20.570Z,18.93
2018-09-16T09:15:26.314Z,18.97
2018-09-16T09:17:31.946Z,18.63
2018-09-16T09:19:37.198Z,18.70
2018-09-16T09:21:42.840Z,18.77
2018-09-16T09:23:48.304Z,17.20
2018-09-16T09:25:54.122Z,17.70
2018-09-16T09:27:59.608Z,16.20
2018-09-16T09:30:04.547Z,17.20
2018-09-16T09:32:09.979Z,16.50
2018-09-16T09:34:15.096Z,16.17
2018-09-16T09:36:20.579Z,16.53
2018-09-16T09:38:26.047Z,17.27
2018-09-16T09:40:32.067Z,17.20
2018-09-16T09:42:37.418Z,15.33
2018-09-16T09:44:42.800Z,17.63
2018-09-16T09:46:48.491Z,15.43
2018-09-16T09:48:53.696Z,15.10
2018-09-16T09:50:59.124Z,15.57
2018-09-16T09:53:04.864Z,16.33
2018-09-16T09:55:10.424Z,13.70
2018-09-16T09:57:16.090Z,15.90
2018-09-16T09:59:21.484Z,14.77
2018-09-16T10:01:26.734Z,15.17
2018-09-16T10:03:32.420Z,14.63
2018-09-16T10:05:38.018Z,13.97
2018-09-16T10:07:43.824Z,15.50
2018-09-16T10:09:49.053Z,14.43
2018-09-16T10:11:55.187Z,13.47
2018-09-16T10:14:06.568Z,13.83
2018-09-16T10:16:12.078Z,14.37
2018-09-16T10:18:17.391Z,13.90
2018-09-16T10:20:36.892Z,13.80
2018-09-16T10:22:42.299Z,13.00
2018-09-16T10:24:47.914Z,13.40
2018-09-16T10:26:53.393Z,14.37
2018-09-16T10:28:58.593Z,13.30
2018-09-16T10:31:03.964Z,13.67
2018-09-16T10:33:09.394Z,13.23
2018-09-16T10:35:14.435Z,14.13
2018-09-16T10:37:20.028Z,13.97
2018-09-16T10:39:25.045Z,13.13
2018-09-16T10:41:30.651Z,11.97
2018-09-16T10:43:35.808Z,12.53
2018-09-16T10:45:41.292Z,10.13
2018-09-16T10:47:46.589Z,11.30
2018-09-16T10:49:51.970Z,9.43
2018-09-16T10:51:56.962Z,14.60
2018-09-16T10:54:02.250Z,12.10
2018-09-16T10:56:07.703Z,10.10
2018-09-16T10:58:13.100Z,9.63
2018-09-16T11:00:18.564Z,8.80
2018-09-16T11:02:24.310Z,8.50
2018-09-16T11:04:30.131Z,7.77
2018-09-16T11:06:35.737Z,8.30
2018-09-16T11:08:41.603Z,8.60
2018-09-16T11:10:47.032Z,7.10
2018-09-16T11:12:52.266Z,7.57
2018-09-16T11:14:57.661Z,6.03
2018-09-16T11:17:02.812Z,6.33
2018-09-16T11:19:08.168Z,5.80
2018-09-16T11:21:13.577Z,5.97
2018-09-16T11:23:18.570Z,5.33
2018-09-16T11:25:24.145Z,5.80
2018-09-16T11:27:29.586Z,4.63
2018-09-16T11:29:35.151Z,5.10
2018-09-16T11:31:40.823Z,4.00
2018-09-16T11:33:46.161Z,4.47
2018-09-16T11:35:51.454Z,4.80
2018-09-16T11:37:56.906Z,3.70
2018-09-16T11:40:02.595Z,3.70
2018-09-16T11:42:07.827Z,3.93
2018-09-16T11:44:12.780Z,4.03
2018-09-16T11:46:17.854Z,5.10
2018-09-16T11:48:22.888Z,5.33
2018-09-16T11:50:28.107Z,5.47
2018-09-16T11:52:32.942Z,5.70
2018-09-16T11:54:37.815Z,5.40
2018-09-16T11:56:42.864Z,7.10
2018-09-16T11:58:48.140Z,6.93
2018-09-16T12:00:55.400Z,6.40
2018-09-16T12:03:00.500Z,7.13
2018-09-16T12:05:05.506Z,7.40
2018-09-16T12:07:10.455Z,6.70
2018-09-16T12:09:15.735Z,6.87
2018-09-16T12:11:24.396Z,6.80
2018-09-16T12:13:29.555Z,6.87
2018-09-16T12:15:34.595Z,7.27
2018-09-16T12:17:39.956Z,6.90
2018-09-16T12:19:44.978Z,6.30
2018-09-16T12:21:50.254Z,7.30
2018-09-16T12:23:55.522Z,7.20
2018-09-16T12:26:00.351Z,6.20
2018-09-16T12:28:05.547Z,8.00
2018-09-16T12:30:10.445Z,9.83
2018-09-16T12:32:15.595Z,8.90
2018-09-16T12:34:20.668Z,8.63
2018-09-16T12:36:25.839Z,7.53
2018-09-16T12:38:30.728Z,8.10
2018-09-16T12:40:35.745Z,7.00
2018-09-16T12:42:40.763Z,8.53
2018-09-16T12:44:45.678Z,8.97
2018-09-16T12:46:50.732Z,7.80
2018-09-16T12:48:55.698Z,9.20
2018-09-16T12:51:00.654Z,9.70
2018-09-16T12:53:05.532Z,9.90
2018-09-16T12:55:10.588Z,9.40
2018-09-16T12:57:15.504Z,10.50
2018-09-16T12:59:20.338Z,11.47
2018-09-16T13:01:25.469Z,11.10
2018-09-16T13:03:30.287Z,11.03
2018-09-16T13:05:35.355Z,10.70
2018-09-16T13:07:40.188Z,10.87
2018-09-16T13:09:45.075Z,10.30
2018-09-16T13:11:50.065Z,12.90
2018-09-16T13:13:55.046Z,11.27
2018-09-16T13:16:00.028Z,12.40
2018-09-16T13:18:04.964Z,13.90
2018-09-16T13:20:09.868Z,15.93
2018-09-16T13:22:14.741Z,16.90
2018-09-16T13:24:19.652Z,17.80
2018-09-16T13:26:24.538Z,18.70
2018-09-16T13:28:29.723Z,18.30
2018-09-16T13:30:34.777Z,21.40
2018-09-16T13:32:39.599Z,21.00
2018-09-16T13:34:44.580Z,22.10
2018-09-16T13:36:49.334Z,21.57
2018-09-16T13:38:54.304Z,21.67
2018-09-16T13:40:59.205Z,21.43
2018-09-16T13:43:04.266Z,21.10
2018-09-16T13:45:09.344Z,22.10
2018-09-16T13:47:14.437Z,22.57
2018-09-16T13:49:19.235Z,21.93
2018-09-16T13:51:24.158Z,21.47
2018-09-16T13:53:29.172Z,21.67
2018-09-16T13:55:34.012Z,20.87
2018-09-16T13:57:38.845Z,20.83
2018-09-16T13:59:43.797Z,20.50
2018-09-16T14:01:48.588Z,19.70
2018-09-16T14:03:54.186Z,20.73
2018-09-16T14:05:59.647Z,20.33
2018-09-16T14:08:05.136Z,19.00
2018-09-16T14:10:10.403Z,18.63
2018-09-16T14:12:15.614Z,20.27
2018-09-16T14:14:20.430Z,20.80
2018-09-16T14:16:25.294Z,19.87
2018-09-16T14:18:30.125Z,18.07
2018-09-16T14:20:35.201Z,19.50
2018-09-16T14:22:39.786Z,19.20
2018-09-16T14:24:44.401Z,19.67
2018-09-16T14:26:49.592Z,18.67
2018-09-16T14:28:54.690Z,20.13
2018-09-16T14:34:11.904Z,19.00
2018-09-16T14:36:20.591Z,17.67
2018-09-16T14:43:59.656Z,16.40
2018-09-16T14:46:04.347Z,18.20
2018-09-16T14:48:09.199Z,16.77
2018-09-16T14:50:14.364Z,18.00
2018-09-16T14:52:19.402Z,17.43
2018-09-16T14:54:24.155Z,17.50
2018-09-16T14:56:28.968Z,18.33
2018-09-16T14:58:33.709Z,17.40
2018-09-16T15:00:38.693Z,16.60
2018-09-16T15:02:43.572Z,15.30
2018-09-16T15:04:48.674Z,15.93
2018-09-16T15:06:53.505Z,16.60
2018-09-16T15:08:58.731Z,15.57
2018-09-16T15:11:03.730Z,14.77
2018-09-16T15:13:08.565Z,16.83
2018-09-16T15:15:13.453Z,17.13
2018-09-16T15:17:18.221Z,16.03
2018-09-16T15:19:23.330Z,15.40
2018-09-16T15:21:28.283Z,16.47
2018-09-16T15:23:33.209Z,15.17
2018-09-16T15:25:38.223Z,14.67
2018-09-16T15:27:43.076Z,15.90
2018-09-16T15:29:48.042Z,16.07
2018-09-16T15:31:53.195Z,15.63
2018-09-16T15:33:58.160Z,15.20
2018-09-16T15:36:02.929Z,16.00
2018-09-16T15:38:07.893Z,16.30
2018-09-16T15:40:13.033Z,15.60
2018-09-16T15:42:17.945Z,15.37
2018-09-16T15:44:22.846Z,16.13
2018-09-16T15:46:27.640Z,14.10
2018-09-16T15:48:32.799Z,13.80
2018-09-16T15:50:37.903Z,14.00
2018-09-16T15:52:42.697Z,13.93
2018-09-16T15:54:47.565Z,13.67
2018-09-16T15:56:52.315Z,13.30
2018-09-16T16:01:18.944Z,14.50
2018-09-16T16:03:23.951Z,12.70
2018-09-16T16:05:28.914Z,13.83
2018-09-16T16:07:33.850Z,14.40
2018-09-16T16:09:38.688Z,13.07
2018-09-16T16:11:43.718Z,13.37
2018-09-16T16:13:49.003Z,13.27
2018-09-16T16:15:53.837Z,14.67
2018-09-16T16:17:58.839Z,13.90
2018-09-16T16:20:03.863Z,13.53
2018-09-16T16:22:08.606Z,12.93
2018-09-16T16:24:13.324Z,12.40
2018-09-16T16:26:18.557Z,12.40
2018-09-16T16:28:23.393Z,11.83
2018-09-16T16:30:28.431Z,11.83
2018-09-16T16:32:33.645Z,12.60
2018-09-16T16:34:38.644Z,13.90
2018-09-16T16:36:43.534Z,13.33
2018-09-16T16:38:48.490Z,13.67
2018-09-16T16:40:53.404Z,13.90
2018-09-16T16:42:58.471Z,13.57
2018-09-16T16:45:03.290Z,12.00
2018-09-16T16:47:08.208Z,11.90
2018-09-16T16:49:13.261Z,13.00
2018-09-16T16:51:18.262Z,11.97
2018-09-16T16:53:23.205Z,12.47
2018-09-16T16:55:28.230Z,11.23
2018-09-16T16:57:33.204Z,12.37
2018-09-16T16:59:38.013Z,11.33
2018-09-16T17:01:43.064Z,10.63
2018-09-16T17:03:47.733Z,10.90
2018-09-16T17:05:52.782Z,11.63
2018-09-16T17:07:58.005Z,10.37
2018-09-16T17:10:02.928Z,11.53
2018-09-16T17:12:07.848Z,11.80
2018-09-16T17:14:12.788Z,11.73
2018-09-16T17:16:17.702Z,12.13
2018-09-16T17:18:22.668Z,10.63
2018-09-16T17:20:27.436Z,11.33
2018-09-16T17:22:32.424Z,12.20
2018-09-16T17:24:37.247Z,10.80
2018-09-16T17:26:42.503Z,11.23
2018-09-16T17:28:47.544Z,10.43
2018-09-16T17:30:52.648Z,11.27
2018-09-16T17:32:57.477Z,11.57
2018-09-16T17:35:02.609Z,11.40
2018-09-16T17:37:07.541Z,12.13
2018-09-16T17:39:13.243Z,11.70
2018-09-16T17:41:18.180Z,11.53
2018-09-16T17:43:23.123Z,10.07
2018-09-16T17:45:29.074Z,11.97
2018-09-16T17:47:33.832Z,10.97
2018-09-16T17:49:38.642Z,10.97
2018-09-16T17:51:43.525Z,11.90
2018-09-16T17:53:49.839Z,10.40
2018-09-16T17:55:54.701Z,10.40
2018-09-16T17:57:59.485Z,11.47
2018-09-16T18:00:04.458Z,11.23
2018-09-16T18:02:10.073Z,10.67
2018-09-16T18:04:14.667Z,11.20
2018-09-16T18:06:19.417Z,10.30
2018-09-16T18:08:54.793Z,10.90
2018-09-16T18:11:00.012Z,11.20
2018-09-16T18:13:04.816Z,11.23
2018-09-16T18:15:09.840Z,11.57
2018-09-16T18:17:14.872Z,11.57
2018-09-16T18:19:19.893Z,10.43
2018-09-16T18:21:24.764Z,11.10
2018-09-16T18:23:29.670Z,11.97
2018-09-16T18:25:34.552Z,12.10
2018-09-16T18:27:39.802Z,11.30
2018-09-16T18:29:44.771Z,11.33
2018-09-16T18:31:49.587Z,11.17
2018-09-16T18:33:54.522Z,11.97
2018-09-16T18:35:59.263Z,11.23
2018-09-16T18:38:04.142Z,10.50
2018-09-16T18:40:09.015Z,11.70
2018-09-16T18:42:14.007Z,10.20
2018-09-16T18:44:18.957Z,9.70
2018-09-16T18:46:24.180Z,11.13
2018-09-16T18:48:29.316Z,10.83
2018-09-16T18:50:34.283Z,10.53
2018-09-16T18:52:39.400Z,11.40
2018-09-16T18:54:44.243Z,11.53
2018-09-16T18:56:49.200Z,11.23
2018-09-16T18:58:53.966Z,10.83
2018-09-16T19:00:58.511Z,11.57
2018-09-16T19:03:03.478Z,11.17
2018-09-16T19:05:08.420Z,10.33
2018-09-16T19:07:13.453Z,10.70
2018-09-16T19:09:18.345Z,11.10
2018-09-16T19:11:23.336Z,11.10
2018-09-16T19:13:28.317Z,10.40
2018-09-16T19:15:33.186Z,10.57
2018-09-16T19:17:38.209Z,12.20
2018-09-16T19:19:42.950Z,9.83
2018-09-16T19:21:47.841Z,10.37
2018-09-16T19:23:52.812Z,10.83
2018-09-16T19:25:58.301Z,11.30
2018-09-16T19:28:03.482Z,11.57
2018-09-16T19:30:08.267Z,11.33
2018-09-16T19:32:13.111Z,11.67
2018-09-16T19:34:18.304Z,10.73
2018-09-16T19:36:23.419Z,10.67
2018-09-16T19:38:28.718Z,11.43
2018-09-16T19:40:33.948Z,10.97
2018-09-16T19:42:39.032Z,10.73
2018-09-16T19:44:44.163Z,11.27
2018-09-16T19:46:49.161Z,11.50
2018-09-16T19:48:54.089Z,10.80
2018-09-16T19:50:59.033Z,11.73
2018-09-16T19:53:04.143Z,10.47
2018-09-16T19:55:08.900Z,11.03
2018-09-16T19:57:13.859Z,10.20
2018-09-16T19:59:18.900Z,11.13
2018-09-16T20:01:23.610Z,10.63
2018-09-16T20:03:28.644Z,10.97
2018-09-16T20:05:33.761Z,10.23
2018-09-16T20:07:38.858Z,10.17
2018-09-16T20:09:43.803Z,10.80
2018-09-16T20:11:48.696Z,10.77
2018-09-16T20:13:53.631Z,11.20
2018-09-16T20:15:58.610Z,11.17
2018-09-16T20:18:03.700Z,10.63
2018-09-16T20:20:08.687Z,10.07
2018-09-16T20:22:13.548Z,11.37
2018-09-16T20:24:18.468Z,10.53
2018-09-16T20:26:23.247Z,10.83
2018-09-16T20:28:28.475Z,10.10
2018-09-16T20:30:33.190Z,9.57
2018-09-16T20:32:38.121Z,10.10
2018-09-16T20:34:42.942Z,10.77
2018-09-16T20:36:48.066Z,10.70
2018-09-16T20:38:53.173Z,10.20
2018-09-16T20:40:58.077Z,8.97
2018-09-16T20:43:03.167Z,10.60
2018-09-16T20:45:08.304Z,10.23
2018-09-16T20:47:14.868Z,10.50
2018-09-16T20:49:19.828Z,9.60
2018-09-16T20:51:24.768Z,8.90
2018-09-16T20:53:29.660Z,10.47
2018-09-16T20:55:34.535Z,9.80
2018-09-16T20:57:40.375Z,9.40
2018-09-16T20:59:45.409Z,9.70
2018-09-16T21:01:50.598Z,9.50
2018-09-16T21:03:55.487Z,9.47
2018-09-16T21:06:00.221Z,9.93
2018-09-16T21:08:04.915Z,9.63
2018-09-16T21:10:09.998Z,9.23
2018-09-16T21:12:15.120Z,9.23
2018-09-16T21:14:19.836Z,9.43
2018-09-16T21:16:24.588Z,8.80
2018-09-16T21:18:29.610Z,10.43
2018-09-16T21:20:34.561Z,9.43
2018-09-16T21:22:39.259Z,9.87
2018-09-16T21:24:44.066Z,10.20
2018-09-16T21:26:49.211Z,9.60
2018-09-16T21:28:54.274Z,8.70
2018-09-16T21:30:59.359Z,9.40
2018-09-16T21:33:04.511Z,9.83
2018-09-16T21:35:09.418Z,9.60
2018-09-16T21:37:14.284Z,9.40
2018-09-16T21:39:19.421Z,8.33
2018-09-16T21:41:24.528Z,9.00
2018-09-16T21:43:29.515Z,8.70
2018-09-16T21:45:34.425Z,8.73
2018-09-16T21:47:39.700Z,9.07
2018-09-16T21:49:44.650Z,9.00
2018-09-16T21:51:49.500Z,8.40
2018-09-16T21:53:54.410Z,8.63
2018-09-16T21:55:59.405Z,8.93
2018-09-16T21:58:04.269Z,8.20
2018-09-16T22:00:09.155Z,8.27
2018-09-16T22:02:14.133Z,8.90
2018-09-16T22:04:19.264Z,8.40
2018-09-16T22:06:24.145Z,9.27
2018-09-16T22:08:29.016Z,8.73
2018-09-16T22:10:34.086Z,8.07
2018-09-16T22:12:39.120Z,9.50
2018-09-16T22:14:43.992Z,8.70
2018-09-16T22:16:48.936Z,8.47
2018-09-16T22:18:54.112Z,9.83
2018-09-16T22:20:58.927Z,8.30
2018-09-16T22:23:03.863Z,8.60
2018-09-16T22:25:08.788Z,8.20
2018-09-16T22:27:13.819Z,8.87
2018-09-16T22:29:18.758Z,8.00
2018-09-16T22:31:23.603Z,8.97
2018-09-16T22:33:28.344Z,7.90
2018-09-16T22:35:33.261Z,8.30
2018-09-16T22:37:38.120Z,8.20
2018-09-16T22:39:43.105Z,9.77
2018-09-16T22:41:47.993Z,8.90
2018-09-16T22:43:52.897Z,8.03
2018-09-16T22:45:57.680Z,7.93
2018-09-16T22:48:02.355Z,8.43
2018-09-16T22:50:07.506Z,8.63
2018-09-16T22:52:12.479Z,7.90
2018-09-16T22:54:17.301Z,8.50
2018-09-16T22:56:22.324Z,9.27
2018-09-16T22:58:27.429Z,7.83
2018-09-16T23:00:32.428Z,8.50
2018-09-16T23:02:37.402Z,7.43
2018-09-16T23:04:42.286Z,8.53
2018-09-16T23:06:47.520Z,9.00
2018-09-16T23:09:10.222Z,7.90
2018-09-16T23:11:15.160Z,8.97
2018-09-16T23:13:20.114Z,8.87
2018-09-16T23:15:24.820Z,9.33
2018-09-16T23:17:29.618Z,8.20
2018-09-16T23:19:34.832Z,7.70
2018-09-16T23:21:39.722Z,7.47
2018-09-16T23:23:44.688Z,8.67
2018-09-16T23:25:49.812Z,9.40
2018-09-16T23:27:54.642Z,7.77
2018-09-16T23:29:59.703Z,8.53
2018-09-16T23:32:04.461Z,8.30
2018-09-16T23:34:09.208Z,7.83
2018-09-16T23:36:14.395Z,8.43
2018-09-16T23:38:19.173Z,9.13
2018-09-16T23:40:25.581Z,8.80
2018-09-16T23:42:30.531Z,7.93
2018-09-16T23:44:35.476Z,8.87
2018-09-16T23:46:40.668Z,8.77
2018-09-16T23:48:45.452Z,7.60
2018-09-16T23:50:50.164Z,8.20
2018-09-16T23:52:55.067Z,8.07
2018-09-16T23:54:59.906Z,8.30
2018-09-16T23:57:04.958Z,8.10
2018-09-16T23:59:10.065Z,7.53
